Time;durP1;ratioP1;P1;durP2;ratioP2;P2;SDS_P1;SDS_P2;PMS_P1;PMS_P2;Temp;Humidity;BMP_temperature;BMP_pressure;BME280_temperature;BME280_humidity;BME280_pressure;Samples;Min_cycle;Max_cycle;Signal;HPM_P1;HPM_P2
2023/04/22 00:00:46;;;;;;;6.57;4.97;;;;;;;8.88;100.00;99858.19;5006506;28;20200;-75
2023/04/22 00:03:13;;;;;;;7.33;5.00;;;;;;;8.92;100.00;99856.47;5011310;28;20206;-75
2023/04/22 00:05:40;;;;;;;8.90;5.00;;;;;;;8.97;100.00;99854.75;5008143;28;20252;-75
2023/04/22 00:08:07;;;;;;;6.73;5.40;;;;;;;8.98;100.00;99862.69;5004553;28;20220;-75
2023/04/22 00:10:34;;;;;;;8.20;5.57;;;;;;;8.92;100.00;99860.00;5007449;28;20279;-75
2023/04/22 00:13:00;;;;;;;8.27;5.40;;;;;;;8.91;100.00;99854.69;5007827;28;20208;-74
2023/04/22 00:15:27;;;;;;;7.03;5.60;;;;;;;8.88;100.00;99858.19;5011130;28;20255;-75
2023/04/22 00:17:53;;;;;;;8.57;5.40;;;;;;;8.85;100.00;99862.56;4998855;28;20221;-76
2023/04/22 00:20:22;;;;;;;7.90;5.40;;;;;;;8.83;100.00;99849.34;5004566;28;20285;-75
2023/04/22 00:22:49;;;;;;;6.70;5.20;;;;;;;8.88;100.00;99852.91;5004872;28;20212;-75
2023/04/22 00:25:15;;;;;;;9.63;5.10;;;;;;;8.98;100.00;99853.91;5002686;28;20198;-74
2023/04/22 00:27:43;;;;;;;6.97;5.17;;;;;;;8.91;100.00;99855.59;5011042;28;20418;-76
2023/04/22 00:30:10;;;;;;;6.93;5.23;;;;;;;8.98;100.00;99849.50;5004035;28;20202;-75
2023/04/22 00:32:37;;;;;;;6.60;4.70;;;;;;;8.95;100.00;99845.94;4997251;28;20205;-75
2023/04/22 00:35:04;;;;;;;6.77;5.13;;;;;;;8.91;100.00;99847.66;5004278;28;20196;-75
2023/04/22 00:37:30;;;;;;;7.27;5.10;;;;;;;8.91;100.00;99852.06;5001608;28;20201;-75
2023/04/22 00:39:56;;;;;;;6.27;4.67;;;;;;;8.88;100.00;99850.28;5007382;28;20221;-75
2023/04/22 00:42:24;;;;;;;5.07;4.20;;;;;;;8.86;100.00;99848.47;4986562;28;20207;-76
2023/04/22 00:44:51;;;;;;;6.73;4.97;;;;;;;8.98;100.00;99841.56;5010365;28;20224;-75
2023/04/22 00:47:17;;;;;;;7.90;5.10;;;;;;;9.13;100.00;99835.56;5008364;28;20229;-75
2023/04/22 00:49:48;;;;;;;7.60;5.10;;;;;;;9.07;100.00;99841.66;5000442;28;20221;-75
2023/04/22 00:52:14;;;;;;;5.87;4.87;;;;;;;9.04;100.00;99839.00;5003201;28;20196;-75
2023/04/22 00:54:40;;;;;;;7.20;5.07;;;;;;;9.03;100.00;99834.59;5003826;28;20205;-75
2023/04/22 00:57:07;;;;;;;6.70;4.60;;;;;;;9.04;100.00;99840.75;5010686;28;20247;-74
2023/04/22 00:59:33;;;;;;;7.27;4.80;;;;;;;9.06;100.00;99839.00;5004884;28;20246;-75
2023/04/22 01:02:00;;;;;;;7.40;5.10;;;;;;;9.01;100.00;99846.88;5005084;28;20203;-75
2023/04/22 01:04:27;;;;;;;9.20;5.20;;;;;;;8.96;100.00;99840.69;4997385;28;20198;-73
2023/04/22 01:06:53;;;;;;;5.80;4.40;;;;;;;8.92;100.00;99838.88;5000296;28;20198;-75
2023/04/22 01:09:19;;;;;;;6.33;4.33;;;;;;;8.88;100.00;99842.34;4990967;28;20273;-75
2023/04/22 01:11:46;;;;;;;5.67;4.20;;;;;;;8.84;100.00;99843.19;5004169;28;20200;-75
2023/04/22 01:14:13;;;;;;;5.27;3.97;;;;;;;8.82;100.00;99834.38;5006132;28;20682;-76
2023/04/22 01:16:39;;;;;;;5.80;4.27;;;;;;;8.85;100.00;99830.88;4984339;28;20198;-75
2023/04/22 01:19:07;;;;;;;6.60;4.53;;;;;;;8.82;100.00;99826.44;4994365;28;20222;-73
2023/04/22 01:21:34;;;;;;;7.27;4.80;;;;;;;8.87;100.00;99829.13;5001211;28;20234;-74
2023/04/22 01:24:01;;;;;;;5.40;4.10;;;;;;;8.92;100.00;99830.94;4998928;28;20225;-75
2023/04/22 01:26:27;;;;;;;6.57;4.30;;;;;;;9.04;100.00;99828.44;4999370;28;20279;-75
2023/04/22 01:28:54;;;;;;;6.80;4.90;;;;;;;9.18;100.00;99835.59;4997825;28;20265;-75
2023/04/22 01:31:21;;;;;;;7.27;4.57;;;;;;;9.14;100.00;99826.75;4995095;28;20214;-73
2023/04/22 01:33:47;;;;;;;5.77;4.40;;;;;;;9.10;100.00;99833.78;5004306;28;20239;-75
2023/04/22 01:36:13;;;;;;;6.40;4.10;;;;;;;9.07;100.00;99838.13;4993379;28;20684;-74
2023/04/22 01:38:40;;;;;;;5.23;4.23;;;;;;;9.11;100.00;99834.66;5001698;28;20232;-76
2023/04/22 01:41:06;;;;;;;5.37;3.97;;;;;;;9.26;100.00;99826.03;5007330;28;20219;-75
2023/04/22 01:43:33;;;;;;;5.67;4.03;;;;;;;9.26;100.00;99832.19;4988326;28;20201;-75
2023/04/22 01:46:00;;;;;;;6.13;4.33;;;;;;;9.24;100.00;99828.66;5008037;28;20252;-74
2023/04/22 01:48:27;;;;;;;6.43;4.10;;;;;;;9.17;100.00;99833.81;5008603;28;20240;-75
2023/04/22 01:50:53;;;;;;;6.13;3.93;;;;;;;9.12;100.00;99831.16;5009712;28;20673;-74
2023/04/22 01:53:20;;;;;;;5.33;3.83;;;;;;;9.13;100.00;99827.63;5008469;28;20205;-75
2023/04/22 01:55:46;;;;;;;5.03;3.70;;;;;;;9.08;100.00;99824.94;4988689;28;20249;-76
2023/04/22 01:58:15;;;;;;;5.40;4.20;;;;;;;9.11;100.00;99830.25;5008894;28;20608;-75
2023/04/22 02:00:41;;;;;;;5.60;4.23;;;;;;;9.33;100.00;99831.38;5003702;28;20265;-75
2023/04/22 02:03:07;;;;;;;5.40;4.07;;;;;;;9.28;100.00;99830.44;5008538;28;20212;-75
2023/04/22 02:05:36;;;;;;;4.60;3.43;;;;;;;9.20;100.00;99832.09;5002293;28;20196;-74
2023/04/22 02:08:04;;;;;;;5.17;3.57;;;;;;;9.16;100.00;99826.78;5003598;28;20228;-75
2023/04/22 02:10:31;;;;;;;5.33;3.67;;;;;;;9.12;100.00;99817.94;5006006;28;20256;-75
2023/04/22 02:12:57;;;;;;;5.53;3.67;;;;;;;9.11;100.00;99830.25;5004823;28;20197;-76
2023/04/22 02:15:24;;;;;;;6.07;3.90;;;;;;;9.09;100.00;99823.19;5008381;28;20192;-75
2023/04/22 02:17:51;;;;;;;5.20;4.23;;;;;;;9.07;100.00;99824.94;5005844;28;20204;-74
2023/04/22 02:20:18;;;;;;;6.27;4.20;;;;;;;9.15;100.00;99822.34;5008152;28;20690;-76
2023/04/22 02:22:44;;;;;;;6.93;4.97;;;;;;;9.15;100.00;99817.97;5007626;28;20239;-75
2023/04/22 02:25:12;;;;;;;4.80;3.80;;;;;;;9.15;100.00;99819.72;5008409;28;20202;-77
2023/04/22 02:27:39;;;;;;;5.33;4.20;;;;;;;9.13;100.00;99822.34;5008882;28;20650;-75
2023/04/22 02:30:06;;;;;;;5.60;4.00;;;;;;;9.10;100.00;99814.41;5003886;28;20200;-76
2023/04/22 02:32:35;;;;;;;4.87;3.97;;;;;;;9.09;100.00;99817.91;5000509;28;20642;-75
2023/04/22 02:35:02;;;;;;;6.17;4.23;;;;;;;9.10;100.00;99827.59;5003920;28;20202;-75
2023/04/22 02:37:28;;;;;;;4.57;3.67;;;;;;;9.10;100.00;99831.13;5006319;28;20693;-74
2023/04/22 02:39:54;;;;;;;6.37;4.27;;;;;;;9.08;100.00;99826.69;5000329;28;20281;-75
2023/04/22 02:42:21;;;;;;;5.20;3.93;;;;;;;9.08;100.00;99837.28;5002151;28;20240;-75
2023/04/22 02:44:47;;;;;;;4.63;3.83;;;;;;;9.04;100.00;99830.19;5007766;28;20202;-75
2023/04/22 02:47:13;;;;;;;5.67;4.13;;;;;;;9.05;100.00;99827.56;5008310;28;20295;-76
2023/04/22 02:49:40;;;;;;;4.73;3.63;;;;;;;9.04;100.00;99827.53;5005098;28;20227;-75
2023/04/22 02:52:07;;;;;;;5.60;3.93;;;;;;;9.02;100.00;99826.66;5001749;28;20233;-74
2023/04/22 02:54:33;;;;;;;5.93;4.07;;;;;;;9.05;100.00;99832.84;4980693;28;20585;-75
2023/04/22 02:57:00;;;;;;;6.00;4.10;;;;;;;9.04;100.00;99832.81;4997923;28;20203;-75
2023/04/22 02:59:26;;;;;;;6.77;4.20;;;;;;;9.01;100.00;99838.97;5006528;28;20726;-74
2023/04/22 03:01:52;;;;;;;5.03;4.17;;;;;;;9.08;100.00;99840.78;5005538;28;20218;-75
2023/04/22 03:04:20;;;;;;;5.53;3.97;;;;;;;9.02;100.00;99837.22;4997891;28;20203;-75
2023/04/22 03:06:50;;;;;;;5.73;3.90;;;;;;;8.94;100.00;99836.25;4996824;28;20321;-75
2023/04/22 03:09:17;;;;;;;5.47;3.67;;;;;;;8.90;100.00;99835.34;5008388;28;20619;-75
2023/04/22 03:11:43;;;;;;;6.53;4.10;;;;;;;8.98;100.00;99830.13;5005282;28;20672;-74
2023/04/22 03:14:09;;;;;;;6.33;4.47;;;;;;;8.99;100.00;99827.50;4994605;28;20213;-76
2023/04/22 03:16:36;;;;;;;5.57;4.30;;;;;;;9.03;100.00;99823.13;4999612;28;20650;-75
2023/04/22 03:19:02;;;;;;;6.87;4.43;;;;;;;8.97;100.00;99825.72;5003535;28;20226;-76
2023/04/22 03:21:31;;;;;;;5.93;4.57;;;;;;;8.90;100.00;99826.53;5005897;28;20211;-75
2023/04/22 03:23:57;;;;;;;6.53;4.63;;;;;;;8.88;100.00;99828.25;5005005;28;20699;-74
2023/04/22 03:26:24;;;;;;;6.60;4.73;;;;;;;8.88;100.00;99821.22;4997284;28;20226;-75
2023/04/22 03:28:50;;;;;;;5.27;4.10;;;;;;;8.93;100.00;99821.28;5004353;28;20253;-74
2023/04/22 03:31:16;;;;;;;6.37;4.50;;;;;;;8.92;100.00;99816.88;5000165;28;20197;-76
2023/04/22 03:33:43;;;;;;;6.07;4.30;;;;;;;8.91;100.00;99825.66;4999938;28;20216;-75
2023/04/22 03:36:09;;;;;;;6.60;4.27;;;;;;;8.79;100.00;99824.63;5002531;28;20205;-75
2023/04/22 03:38:35;;;;;;;6.93;4.50;;;;;;;8.72;100.00;99821.91;5005158;28;20219;-75
2023/04/22 03:41:02;;;;;;;5.53;4.40;;;;;;;8.64;100.00;99821.81;4987104;28;20205;-75
2023/04/22 03:43:28;;;;;;;6.57;4.10;;;;;;;8.61;100.00;99821.78;4985340;28;20244;-75
2023/04/22 03:45:54;;;;;;;6.57;3.87;;;;;;;8.54;100.00;99814.66;5007572;28;20233;-75
2023/04/22 03:48:21;;;;;;;6.43;4.23;;;;;;;8.52;100.00;99826.06;5007730;28;20228;-75
2023/04/22 03:50:47;;;;;;;5.67;3.97;;;;;;;8.51;100.00;99833.09;5006976;28;20243;-75
2023/04/22 03:53:13;;;;;;;6.63;4.63;;;;;;;8.50;100.00;99839.25;5007492;28;20249;-76
2023/04/22 03:55:40;;;;;;;9.53;6.37;;;;;;;8.55;100.00;99812.91;5007152;28;20203;-75
2023/04/22 03:58:06;;;;;;;8.33;6.00;;;;;;;8.66;100.00;99832.38;5004442;28;20220;-75
2023/04/22 04:00:33;;;;;;;7.50;4.83;;;;;;;8.65;100.00;99827.97;5015647;28;20232;-75
2023/04/22 04:02:59;;;;;;;7.33;4.97;;;;;;;8.63;100.00;99824.44;5008682;28;20202;-75
2023/04/22 04:05:26;;;;;;;7.10;5.10;;;;;;;8.58;100.00;99829.66;5009199;28;20209;-75
2023/04/22 04:07:52;;;;;;;7.13;5.10;;;;;;;8.57;100.00;99834.94;5004455;28;20245;-75
2023/04/22 04:10:18;;;;;;;7.63;5.47;;;;;;;8.73;100.00;99821.03;5007363;28;20204;-75
2023/04/22 04:12:45;;;;;;;7.13;5.20;;;;;;;8.73;100.00;99821.03;4997121;28;20204;-75
2023/04/22 04:15:12;;;;;;;6.80;5.03;;;;;;;8.71;100.00;99818.38;5002115;28;20582;-75
2023/04/22 04:17:38;;;;;;;6.83;5.00;;;;;;;8.66;100.00;99814.81;5004980;28;20227;-75
2023/04/22 06:46:32;;;;;;;7.37;5.63;;;;;;;13.69;97.51;99844.16;5038753;22;20339;-76
2023/04/22 06:48:58;;;;;;;8.27;6.00;;;;;;;14.13;94.33;99838.44;4996614;28;20247;-78
2023/04/22 06:51:25;;;;;;;9.60;5.77;;;;;;;14.66;91.39;99823.66;4992236;28;20228;-75
2023/04/22 06:53:51;;;;;;;7.77;5.87;;;;;;;15.27;87.55;99822.84;4994018;28;20705;-75
2023/04/22 06:56:17;;;;;;;10.43;6.97;;;;;;;15.74;84.83;99832.81;4990596;28;20200;-71
2023/04/22 06:58:44;;;;;;;12.60;7.70;;;;;;;16.10;82.63;99823.28;4977565;28;20692;-71
2023/04/22 07:01:10;;;;;;;13.07;8.63;;;;;;;17.35;77.32;99831.44;4985548;28;20224;-70
2023/04/22 07:03:36;;;;;;;12.30;7.87;;;;;;;18.55;71.23;99834.66;4993253;28;20192;-71
2023/04/22 07:06:04;;;;;;;15.43;9.30;;;;;;;19.29;67.82;99839.66;4992582;28;20212;-71
2023/04/22 07:08:30;;;;;;;12.30;8.23;;;;;;;19.88;66.68;99829.69;4991902;28;20446;-71
2023/04/22 07:10:56;;;;;;;11.50;7.97;;;;;;;20.49;63.57;99826.72;4994961;28;20739;-73
2023/04/22 07:13:23;;;;;;;12.63;7.93;;;;;;;20.89;60.74;99824.31;4994459;28;20212;-72
2023/04/22 07:15:49;;;;;;;10.77;8.07;;;;;;;21.65;55.05;99830.38;4997289;28;20240;-72
2023/04/22 07:18:15;;;;;;;12.43;7.87;;;;;;;22.17;52.18;99831.78;4997434;28;20192;-72
2023/04/22 07:20:42;;;;;;;10.97;7.47;;;;;;;22.54;51.64;99822.94;4979669;28;20773;-74
2023/04/22 07:23:08;;;;;;;10.33;6.97;;;;;;;23.05;48.04;99819.72;4999406;28;20200;-72
2023/04/22 07:25:34;;;;;;;10.53;6.83;;;;;;;23.22;48.07;99824.34;4993459;28;20197;-72
2023/04/22 07:28:01;;;;;;;9.77;6.00;;;;;;;23.10;48.13;99822.19;4994744;28;20296;-71
2023/04/22 07:30:27;;;;;;;8.53;6.00;;;;;;;22.47;50.11;99816.94;4994701;28;20272;-71
2023/04/22 07:32:54;;;;;;;6.70;5.43;;;;;;;22.08;50.92;99816.00;4994719;28;20203;-71
2023/04/22 07:35:20;;;;;;;8.97;5.47;;;;;;;21.94;51.45;99819.22;4990925;28;20572;-71
2023/04/22 07:37:47;;;;;;;9.30;5.50;;;;;;;21.62;51.98;99815.19;4996671;28;20239;-71
2023/04/22 07:40:13;;;;;;;7.53;4.80;;;;;;;21.15;51.88;99817.03;4991197;28;20988;-71
2023/04/22 07:42:39;;;;;;;6.27;4.27;;;;;;;20.69;53.87;99807.16;4978598;28;20233;-71
2023/04/22 07:45:06;;;;;;;8.50;4.77;;;;;;;20.54;52.44;99813.97;4996865;28;20258;-73
2023/04/22 07:47:32;;;;;;;5.80;4.30;;;;;;;20.05;54.71;99817.50;4967031;28;20811;-71
2023/04/22 07:49:59;;;;;;;6.13;4.80;;;;;;;19.76;55.90;99821.16;4966606;28;20307;-72
2023/04/22 07:52:26;;;;;;;6.80;4.40;;;;;;;20.06;56.50;99811.19;4990718;28;20967;-70
2023/04/22 07:54:52;;;;;;;6.30;4.30;;;;;;;20.30;52.81;99821.94;4987936;28;20267;-69
2023/04/22 07:57:21;;;;;;;8.43;3.97;;;;;;;19.85;54.28;99818.16;4980016;28;20201;-71
2023/04/22 07:59:48;;;;;;;7.50;4.70;;;;;;;19.60;55.05;99818.09;4988704;28;20229;-72
2023/04/22 08:02:14;;;;;;;6.13;4.07;;;;;;;19.68;56.68;99816.94;4982898;28;20205;-73
2023/04/22 08:04:41;;;;;;;7.87;4.83;;;;;;;19.31;56.86;99819.88;4981901;28;20194;-71
2023/04/22 08:07:07;;;;;;;7.17;5.00;;;;;;;19.22;57.63;99816.63;4986471;28;20661;-73
2023/04/22 08:09:55;;;;;;;8.33;5.00;;;;;;;18.98;57.87;99815.53;4989351;28;20680;-72
2023/04/22 08:12:22;;;;;;;5.57;4.37;;;;;;;18.83;59.94;99799.91;4986713;28;20626;-71
2023/04/22 08:14:48;;;;;;;7.97;5.40;;;;;;;18.75;59.13;99802.78;4990428;28;20596;-71
2023/04/22 08:17:15;;;;;;;9.87;5.60;;;;;;;18.63;58.83;99806.72;4992731;28;20578;-71
2023/04/22 08:19:41;;;;;;;6.67;5.10;;;;;;;18.68;58.99;99809.25;4972536;28;20299;-71
2023/04/22 08:22:07;;;;;;;8.33;5.60;;;;;;;18.71;58.96;99807.38;4993198;28;20251;-70
2023/04/22 08:24:34;;;;;;;7.20;5.40;;;;;;;18.79;57.58;99805.34;4989253;28;20204;-71
2023/04/22 08:27:01;;;;;;;9.07;5.63;;;;;;;18.96;58.16;99807.53;4992434;28;20204;-72
2023/04/22 08:29:27;;;;;;;9.20;5.00;;;;;;;19.26;55.71;99805.72;4975046;28;20256;-71
2023/04/22 08:31:54;;;;;;;7.87;5.00;;;;;;;19.54;56.67;99805.72;4988650;28;20630;-71
2023/04/22 08:34:20;;;;;;;7.60;5.68;;;;;;;19.86;54.81;99803.78;4990435;28;20193;-74
2023/04/22 08:36:46;;;;;;;7.45;4.82;;;;;;;19.99;54.18;99806.00;4969116;28;20224;-72
2023/04/22 08:39:13;;;;;;;8.38;6.07;;;;;;;20.24;52.17;99795.28;4992111;28;20255;-72
2023/04/22 08:41:42;;;;;;;8.73;5.50;;;;;;;20.41;52.69;99802.75;4995174;28;20683;-71
2023/04/22 08:44:10;;;;;;;6.90;5.68;;;;;;;20.43;52.40;99782.09;4968491;28;20296;-73
2023/04/22 08:46:37;;;;;;;7.80;6.10;;;;;;;20.63;53.19;99793.00;4986129;28;20212;-71
2023/04/22 08:49:04;;;;;;;8.18;6.13;;;;;;;20.78;51.19;99793.34;4983219;28;20227;-70
2023/04/22 08:51:33;;;;;;;7.95;5.35;;;;;;;20.95;50.69;99796.28;4988512;28;20580;-69
2023/04/22 08:54:00;;;;;;;8.90;5.38;;;;;;;21.19;51.72;99797.13;4994572;28;20200;-69
2023/04/22 08:56:27;;;;;;;6.53;5.07;;;;;;;21.24;50.11;99787.97;4986138;28;20294;-69
2023/04/22 08:58:54;;;;;;;12.23;5.50;;;;;;;21.34;50.13;99790.31;4992604;28;20227;-71
2023/04/22 09:01:21;;;;;;;8.38;5.22;;;;;;;21.47;49.90;99783.47;4996061;28;20248;-69
2023/04/22 09:03:48;;;;;;;7.43;5.60;;;;;;;21.56;50.11;99786.66;4991145;28;20521;-70
2023/04/22 09:06:17;;;;;;;8.20;5.70;;;;;;;21.65;48.71;99788.13;4988208;28;20228;-69
2023/04/22 09:08:43;;;;;;;8.05;5.70;;;;;;;21.82;49.52;99785.56;4991929;28;20290;-71
2023/04/22 09:11:10;;;;;;;8.85;5.60;;;;;;;21.98;48.24;99779.53;4991520;28;20193;-69
2023/04/22 09:13:36;;;;;;;7.43;5.47;;;;;;;21.94;48.46;99784.16;4995914;28;20287;-70
2023/04/22 09:16:03;;;;;;;8.98;6.38;;;;;;;21.67;48.69;99764.66;4993016;28;20228;-69
2023/04/22 09:18:29;;;;;;;8.48;6.03;;;;;;;21.78;49.32;99767.78;4993468;28;20336;-70
2023/04/22 09:20:56;;;;;;;8.00;5.72;;;;;;;22.03;49.06;99773.03;4997130;28;20218;-71
2023/04/22 09:23:22;;;;;;;9.88;6.47;;;;;;;22.41;47.53;99770.44;4976871;28;20220;-69
2023/04/22 09:25:49;;;;;;;9.52;6.32;;;;;;;23.05;47.58;99779.19;5001264;28;20201;-70
2023/04/22 09:28:17;;;;;;;9.98;6.18;;;;;;;23.64;46.50;99769.19;4997170;28;20730;-71
2023/04/22 09:30:45;;;;;;;8.98;5.88;;;;;;;23.93;44.26;99776.66;4996320;28;20220;-70
2023/04/22 09:33:16;;;;;;;10.75;7.40;;;;;;;24.00;43.20;99775.41;4995227;28;20529;-70
2023/04/22 09:35:42;;;;;;;7.85;6.35;;;;;;;24.05;43.65;99772.47;5001210;28;20340;-70
2023/04/22 09:38:10;;;;;;;9.60;6.95;;;;;;;24.05;42.75;99776.06;4998699;28;20211;-69
2023/04/22 09:40:41;;;;;;;10.07;7.30;;;;;;;24.15;42.88;99775.56;4994865;28;20617;-70
2023/04/22 09:43:08;;;;;;;10.27;6.75;;;;;;;24.27;42.39;99770.41;5000297;28;20201;-67
2023/04/22 09:45:40;;;;;;;9.95;6.43;;;;;;;24.06;43.01;99775.09;4991526;28;20201;-70
2023/04/22 09:48:14;;;;;;;9.80;6.30;;;;;;;24.22;41.96;99771.59;4991913;28;20217;-74
2023/04/22 09:50:44;;;;;;;8.30;6.75;;;;;;;24.26;41.64;99760.50;4995561;28;20208;-71
2023/04/22 09:53:13;;;;;;;10.13;7.20;;;;;;;24.31;42.01;99760.31;5005864;28;20200;-73
2023/04/22 09:55:42;;;;;;;10.02;6.95;;;;;;;24.17;41.77;99766.41;4989698;28;20204;-71
2023/04/22 09:58:11;;;;;;;10.55;6.20;;;;;;;24.27;40.92;99766.81;4995514;28;20232;-68
2023/04/22 10:00:43;;;;;;;10.27;6.95;;;;;;;24.22;42.15;99767.03;4997997;28;20274;-73
2023/04/22 10:03:10;;;;;;;11.18;6.60;;;;;;;23.92;42.84;99755.97;4980114;28;20201;-71
2023/04/22 10:05:36;;;;;;;10.93;6.22;;;;;;;23.61;43.15;99764.75;4997921;28;20664;-73
2023/04/22 10:08:07;;;;;;;11.07;6.47;;;;;;;23.49;44.14;99757.25;5001727;28;20200;-72
2023/04/22 10:10:34;;;;;;;8.43;5.82;;;;;;;23.45;43.30;99755.66;4994141;28;20212;-71
2023/04/22 10:13:03;;;;;;;8.82;6.50;;;;;;;23.49;44.06;99754.53;4983686;28;20716;-70
2023/04/22 10:15:54;;;;;;;8.73;6.55;;;;;;;23.31;43.68;99758.16;4986174;28;20205;-70
2023/04/22 10:18:24;;;;;;;8.57;6.63;;;;;;;23.09;43.95;99745.69;4998431;28;20200;-69
2023/04/22 10:20:52;;;;;;;8.23;5.75;;;;;;;23.20;44.79;99741.56;5039410;23;20254;-76
2023/04/22 10:23:21;;;;;;;6.22;5.45;;;;;;;23.66;43.98;99743.81;5024265;28;20214;-76
2023/04/22 10:25:54;;;;;;;9.15;5.90;;;;;;;23.78;41.86;99731.47;5028699;28;20204;-74
2023/04/22 10:28:22;;;;;;;7.25;5.75;;;;;;;24.05;42.00;99731.91;5028182;28;20200;-74
2023/04/22 10:30:49;;;;;;;7.60;5.25;;;;;;;24.38;41.50;99737.34;5017837;28;20219;-76
2023/04/22 10:33:27;;;;;;;6.50;5.55;;;;;;;24.60;41.60;99728.97;5025210;28;20282;-75
2023/04/22 10:36:20;;;;;;;11.20;6.30;;;;;;;24.58;39.80;99734.47;5026726;28;20201;-74
2023/04/22 10:38:49;;;;;;;7.45;5.88;;;;;;;24.48;41.12;99740.47;5018548;28;20249;-74
2023/04/22 10:41:21;;;;;;;8.02;5.78;;;;;;;23.95;41.91;99730.59;5026647;28;20246;-75
2023/04/22 10:43:57;;;;;;;6.65;5.30;;;;;;;23.91;42.09;99735.31;5023381;28;20200;-75
2023/04/22 10:46:30;;;;;;;7.10;5.68;;;;;;;23.74;42.47;99732.59;5029982;28;20206;-74
2023/04/22 10:49:09;;;;;;;8.55;5.13;;;;;;;23.95;42.79;99714.38;5028012;28;20218;-73
2023/04/22 10:51:42;;;;;;;7.10;5.25;;;;;;;24.38;41.51;99723.81;5021215;28;20199;-74
2023/04/22 10:57:05;;;;;;;6.75;4.68;;;;;;;24.46;40.70;99718.03;5019885;28;20282;-75
2023/04/22 10:59:40;;;;;;;5.88;4.80;;;;;;;24.32;39.87;99710.63;5010661;28;20219;-74
2023/04/22 11:02:08;;;;;;;6.10;4.85;;;;;;;24.13;40.38;99716.13;5028394;28;20722;-74
2023/04/22 11:04:34;;;;;;;8.05;4.60;;;;;;;24.04;41.12;99706.69;5015345;28;20234;-75
2023/04/22 11:07:21;;;;;;;6.72;4.63;;;;;;;24.04;41.66;99705.81;5025268;28;20192;-76
2023/04/22 11:10:49;;;;;;;5.85;4.80;;;;;;;23.77;41.11;99700.00;5028084;28;20736;-75
2023/04/22 11:13:18;;;;;;;5.70;4.50;;;;;;;23.96;41.57;99706.19;4962126;28;20298;-74
2023/04/22 11:15:50;;;;;;;6.57;4.72;;;;;;;23.85;41.65;99695.06;5018317;28;20191;-74
2023/04/22 11:18:19;;;;;;;5.78;4.00;;;;;;;23.97;40.89;99702.50;5025227;28;20220;-72
2023/04/22 11:20:48;;;;;;;9.10;4.88;;;;;;;23.82;41.77;99695.22;5027706;28;20262;-76
2023/04/22 11:23:25;;;;;;;6.00;4.38;;;;;;;23.72;41.37;99689.41;5022694;28;20200;-75
2023/04/22 11:26:03;;;;;;;6.60;5.05;;;;;;;23.68;40.55;99697.78;5031526;28;20222;-74
2023/04/22 11:28:30;;;;;;;6.47;4.97;;;;;;;23.82;40.62;99684.41;5010119;28;20290;-75
2023/04/22 11:31:09;;;;;;;6.28;4.35;;;;;;;23.90;40.35;99687.56;5025139;28;20211;-75
2023/04/22 11:33:37;;;;;;;6.18;4.00;;;;;;;24.16;39.74;99691.59;5028582;28;20582;-74
2023/04/22 11:36:04;;;;;;;6.43;4.10;;;;;;;24.37;37.85;99689.59;5027755;28;20196;-74
2023/04/22 11:38:31;;;;;;;4.97;3.42;;;;;;;24.62;39.13;99692.72;5021345;28;20810;-74
2023/04/22 11:40:58;;;;;;;6.60;3.90;;;;;;;24.64;38.09;99696.22;5011273;28;20719;-74
2023/04/22 11:43:24;;;;;;;4.10;3.42;;;;;;;24.29;38.96;99681.03;5029590;28;20195;-75
2023/04/22 11:45:54;;;;;;;6.30;3.47;;;;;;;24.15;39.30;99684.44;5034256;28;20683;-74
2023/04/22 11:48:20;;;;;;;4.05;3.28;;;;;;;24.34;38.62;99687.94;5012586;28;20195;-76
2023/04/22 11:50:47;;;;;;;6.47;5.00;;;;;;;24.79;37.09;99678.22;5032436;28;20250;-74
2023/04/22 11:53:16;;;;;;;4.55;2.95;;;;;;;25.02;38.13;99689.63;5030330;28;20235;-76
2023/04/22 11:55:44;;;;;;;4.55;2.90;;;;;;;25.08;37.72;99673.91;5032643;28;20402;-74
2023/04/22 11:58:16;;;;;;;4.63;2.80;;;;;;;25.21;37.45;99676.75;5029813;28;20199;-75
2023/04/22 12:00:50;;;;;;;3.92;2.50;;;;;;;25.48;37.27;99672.44;5031702;28;20229;-76
2023/04/22 12:03:17;;;;;;;4.22;3.08;;;;;;;25.52;36.82;99665.88;5028994;28;20195;-75
2023/04/22 12:05:52;;;;;;;5.10;3.20;;;;;;;25.40;35.95;99677.44;5031495;28;20203;-73
2023/04/22 12:08:21;;;;;;;6.93;3.17;;;;;;;25.18;36.17;99663.38;5030212;28;20199;-74
2023/04/22 12:10:57;;;;;;;3.70;3.28;;;;;;;25.01;37.02;99664.38;5031733;28;20207;-74
2023/04/22 12:13:25;;;;;;;4.35;3.40;;;;;;;25.08;36.76;99671.19;5024991;28;20609;-76
2023/04/22 12:15:54;;;;;;;4.13;3.15;;;;;;;25.17;36.69;99667.06;5031136;28;20202;-75
2023/04/22 12:18:28;;;;;;;4.13;3.20;;;;;;;25.33;36.01;99670.66;5030803;28;20230;-75
2023/04/22 12:21:15;;;;;;;5.50;2.80;;;;;;;25.63;35.82;99667.09;5020896;28;20219;-74
2023/04/22 12:23:47;;;;;;;4.10;3.00;;;;;;;25.78;34.95;99669.78;5025409;28;20199;-75
2023/04/22 12:26:15;;;;;;;3.85;2.97;;;;;;;25.82;35.35;99665.91;5013422;28;20674;-77
2023/04/22 12:28:42;;;;;;;4.72;3.22;;;;;;;25.42;36.05;99667.38;5029730;28;20202;-74
2023/04/22 12:31:09;;;;;;;3.58;2.80;;;;;;;25.45;36.21;99678.03;5029970;28;20223;-73
2023/04/22 12:33:36;;;;;;;3.17;2.70;;;;;;;25.03;36.01;99665.16;5012954;28;20644;-75
2023/04/22 12:36:04;;;;;;;3.65;2.40;;;;;;;24.86;36.21;99665.22;5023032;28;20207;-73
2023/04/22 12:38:31;;;;;;;2.83;2.08;;;;;;;24.79;36.95;99677.34;5027216;28;20246;-72
2023/04/22 12:40:57;;;;;;;5.32;2.90;;;;;;;24.63;36.82;99674.63;5032489;28;20223;-74
2023/04/22 12:43:24;;;;;;;3.53;2.35;;;;;;;24.60;36.82;99672.09;5030156;28;20238;-76
2023/04/22 12:45:50;;;;;;;2.75;2.45;;;;;;;24.60;36.71;99662.16;5027092;28;20250;-77
2023/04/22 12:48:17;;;;;;;4.43;2.60;;;;;;;24.67;37.13;99665.38;5028243;28;20199;-74
2023/04/22 12:50:43;;;;;;;6.00;2.55;;;;;;;25.09;37.00;99667.50;5024291;28;20223;-74
2023/04/22 12:53:10;;;;;;;4.75;3.13;;;;;;;25.48;36.36;99664.31;5030567;28;20195;-74
2023/04/22 12:55:36;;;;;;;3.75;2.70;;;;;;;25.98;35.04;99654.09;5023262;28;20200;-74
2023/04/22 12:58:03;;;;;;;6.50;3.08;;;;;;;26.26;33.44;99655.97;5030880;28;20199;-75
2023/04/22 13:00:29;;;;;;;4.85;2.88;;;;;;;26.37;33.61;99661.63;5030513;28;20606;-76
2023/04/22 13:02:56;;;;;;;5.63;2.75;;;;;;;26.24;34.37;99662.38;5013515;28;20620;-75
2023/04/22 13:05:22;;;;;;;4.10;2.42;;;;;;;25.99;34.62;99654.00;5031091;28;20202;-74
2023/04/22 13:07:49;;;;;;;3.88;2.53;;;;;;;25.42;35.43;99661.97;5029147;28;20203;-76
2023/04/22 13:10:31;;;;;;;3.50;2.60;;;;;;;24.98;36.07;99665.44;5031125;28;20223;-78
2023/04/22 13:12:58;;;;;;;1.98;1.77;;;;;;;24.32;33.63;99664.63;5025051;28;20187;-74
2023/04/22 13:15:42;;;;;;;3.88;1.65;;;;;;;23.70;34.00;99664.28;5023970;28;20205;-74
2023/04/22 13:18:08;;;;;;;4.07;1.90;;;;;;;23.12;34.31;99660.91;5013880;28;20206;-74
2023/04/22 13:20:34;;;;;;;3.83;2.00;;;;;;;23.06;34.82;99663.94;5011579;28;20227;-76
2023/04/22 13:23:01;;;;;;;3.55;1.90;;;;;;;22.79;35.21;99668.81;5029292;28;20645;-75
2023/04/22 13:25:27;;;;;;;4.38;2.72;;;;;;;22.60;35.74;99660.72;5029487;28;20228;-75
2023/04/22 13:27:54;;;;;;;2.88;1.77;;;;;;;22.46;36.24;99666.78;5030930;28;20753;-75
2023/04/22 13:30:20;;;;;;;2.25;1.80;;;;;;;22.20;36.76;99653.59;5024748;28;20215;-75
2023/04/22 13:32:46;;;;;;;3.30;2.00;;;;;;;22.01;36.81;99655.34;5029852;28;20229;-73
2023/04/22 13:35:13;;;;;;;3.08;1.85;;;;;;;21.77;36.89;99655.50;5026446;28;20200;-73
2023/04/22 13:37:39;;;;;;;4.80;1.90;;;;;;;21.56;37.40;99661.81;5028618;28;20204;-74
2023/04/22 13:40:07;;;;;;;2.78;1.83;;;;;;;21.35;38.33;99657.38;5030579;28;20215;-76
2023/04/22 13:42:33;;;;;;;4.43;1.83;;;;;;;21.11;38.54;99651.13;5027618;28;20226;-73
2023/04/22 13:45:00;;;;;;;2.28;1.90;;;;;;;21.02;38.85;99668.56;5029852;28;20274;-71
2023/04/22 13:47:26;;;;;;;3.58;1.90;;;;;;;20.87;39.97;99674.56;5027451;28;20203;-76
2023/04/22 13:49:52;;;;;;;2.33;1.70;;;;;;;20.69;40.73;99677.97;5030722;28;20211;-75
2023/04/22 13:52:19;;;;;;;3.72;2.08;;;;;;;20.59;41.39;99685.53;5027364;28;20745;-74
2023/04/22 13:54:46;;;;;;;4.38;2.58;;;;;;;20.45;42.18;99682.50;5027975;28;20199;-77
2023/04/22 13:57:12;;;;;;;3.05;1.98;;;;;;;20.30;42.92;99691.97;5025489;28;20288;-74
2023/04/22 13:59:40;;;;;;;3.30;1.92;;;;;;;20.08;43.72;99693.72;5029310;28;20257;-76
2023/04/22 14:02:07;;;;;;;2.92;1.70;;;;;;;19.88;44.91;99681.88;5029395;28;20857;-76
2023/04/22 14:04:33;;;;;;;2.40;1.98;;;;;;;19.75;45.07;99679.69;5024474;28;20679;-74